Time,TemperatureF,DewpointF,PressureIn,WindDirection,WindDirectionDegrees,WindSpeedMPH,WindSpeedGustMPH,Humidity,HourlyPrecipIn,Conditions,Clouds,dailyrainin,SoftwareType,DateUTC
2013-09-04 00:00:00,61.5,55.6,29.98,SSW,198,6.0,7.0,81,0.00,,,0.00,VWS V15.00,2013-09-04 05:00:00,
2013-09-04 00:01:00,60.7,55.8,29.98,SSW,199,6.0,8.0,84,0.00,,SCT120,0.00,VWS V14.01,2013-09-04 05:01:00,
2013-09-04 00:07:00,60.5,55.7,29.98,SSW,199,5.0,7.0,84,0.00,,SCT120,0.00,VWS V14.01,2013-09-04 05:07:00,
2013-09-04 00:12:00,60.4,55.9,29.98,SSW,199,6.0,7.0,85,0.00,,SCT120,0.00,VWS V14.01,2013-09-04 05:12:00,
2013-09-04 00:15:00,61.0,55.5,29.97,SSW,198,6.0,9.0,82,0.00,,,0.00,VWS V15.00,2013-09-04 05:15:00,
2013-09-04 00:17:00,60.2,55.7,29.98,SSW,199,5.0,5.0,85,0.00,,SCT120,0.00,VWS V14.01,2013-09-04 05:17:00,
2013-09-04 00:22:00,60.1,55.6,29.98,SSW,199,5.0,6.0,85,0.00,,SCT120,0.00,VWS V14.01,2013-09-04 05:22:00,
2013-09-04 00:27:00,60.1,55.6,29.98,SSW,199,6.0,6.0,85,0.00,,SCT120,0.00,VWS V14.01,2013-09-04 05:27:00,
2013-09-04 00:30:00,61.0,55.8,29.97,SSW,198,7.0,8.0,83,0.00,,,0.00,VWS V15.00,2013-09-04 05:30:00,
2013-09-04 00:32:00,60.1,55.9,29.98,SSW,199,6.0,6.0,86,0.00,,SCT120,0.00,VWS V14.01,2013-09-04 05:32:00,
2013-09-04 00:37:00,60.2,56.0,29.98,SSW,199,5.0,6.0,86,0.00,,SCT120,0.00,VWS V14.01,2013-09-04 05:37:00,
2013-09-04 00:42:00,60.4,56.2,29.98,SSW,199,6.0,7.0,86,0.00,,SCT120,0.00,VWS V14.01,2013-09-04 05:42:00,
2013-09-04 00:45:00,60.9,55.7,29.97,SSW,198,7.0,9.0,83,0.00,,,0.00,VWS V15.00,2013-09-04 05:45:00,
2013-09-04 00:47:00,60.2,56.0,29.98,SSW,199,5.0,6.0,86,0.00,,SCT120,0.00,VWS V14.01,2013-09-04 05:47:00,
2013-09-04 00:52:00,60.2,56.0,29.98,SSW,199,6.0,6.0,86,0.00,,SCT120,0.00,VWS V14.01,2013-09-04 05:52:00,
2013-09-04 00:57:00,60.2,56.0,29.98,SSW,199,5.0,6.0,86,0.00,,SCT120,0.00,VWS V14.01,2013-09-04 05:57:00,
2013-09-04 01:00:00,60.7,55.8,29.98,SSW,199,6.0,8.0,84,0.00,,,0.00,VWS V15.00,2013-09-04 06:00:00,
2013-09-04 01:02:00,60.2,56.0,29.98,SSW,199,6.0,7.0,86,0.00,,SCT120,0.00,VWS V14.01,2013-09-04 06:02:00,
2013-09-04 01:07:00,60.2,56.0,29.98,SSW,199,6.0,7.0,86,0.00,,SCT120,0.00,VWS V14.01,2013-09-04 06:07:00,
2013-09-04 01:12:00,60.1,55.9,29.98,SSW,199,5.0,7.0,86,0.00,,SCT120,0.00,VWS V14.01,2013-09-04 06:12:00,
2013-09-04 01:15:00,60.2,55.7,29.98,SSW,199,5.0,7.0,85,0.00,,,0.00,VWS V15.00,2013-09-04 06:15:00,
2013-09-04 01:17:00,59.9,56.0,29.98,SSW,199,5.0,6.0,87,0.00,,SCT120,0.00,VWS V14.01,2013-09-04 06:17:00,
2013-09-04 01:22:00,59.9,56.0,29.98,SSW,199,5.0,6.0,87,0.00,,SCT120,0.00,VWS V14.01,2013-09-04 06:22:00,
2013-09-04 01:27:00,59.8,55.9,29.98,SSW,199,5.0,7.0,87,0.00,,SCT120,0.00,VWS V14.01,2013-09-04 06:27:00,
2013-09-04 01:30:00,60.1,55.9,29.98,SSW,199,5.0,6.0,86,0.00,,,0.00,VWS V15.00,2013-09-04 06:30:00,
2013-09-04 01:32:00,59.6,55.7,29.98,SSW,199,5.0,7.0,87,0.00,,SCT120,0.00,VWS V14.01,2013-09-04 06:32:00,
2013-09-04 01:37:00,59.6,55.7,29.98,SSW,199,6.0,7.0,87,0.00,,SCT120,0.00,VWS V14.01,2013-09-04 06:37:00,
2013-09-04 01:42:00,59.6,55.7,29.98,SSW,199,6.0,7.0,87,0.00,,BKN120,0.00,VWS V14.01,2013-09-04 06:42:00,
2013-09-04 01:45:00,60.2,56.0,29.98,SSW,199,5.0,7.0,86,0.00,,,0.00,VWS V15.00,2013-09-04 06:45:00,
2013-09-04 01:47:00,59.5,56.0,29.98,SSW,199,6.0,6.0,88,0.00,,BKN120,0.00,VWS V14.01,2013-09-04 06:47:00,
2013-09-04 01:53:00,59.6,56.0,29.98,SSW,199,7.0,7.0,88,0.00,,BKN120,0.00,VWS V14.01,2013-09-04 06:53:00,
2013-09-04 01:58:00,59.6,56.0,29.98,SSW,199,7.0,7.0,88,0.00,,BKN120,0.00,VWS V14.01,2013-09-04 06:58:00,
2013-09-04 02:00:00,60.2,56.0,29.98,SSW,199,6.0,7.0,86,0.00,,,0.00,VWS V15.00,2013-09-04 07:00:00,
2013-09-04 02:03:00,59.5,56.0,29.98,SSW,199,6.0,7.0,88,0.00,,SCT120,0.00,VWS V14.01,2013-09-04 07:03:00,
2013-09-04 02:08:00,59.3,55.8,29.98,SSW,199,6.0,7.0,88,0.00,,SCT120,0.00,VWS V14.01,2013-09-04 07:08:00,
2013-09-04 02:13:00,59.2,55.7,29.98,SSW,199,5.0,9.0,88,0.00,,SCT120,0.00,VWS V14.01,2013-09-04 07:13:00,
2013-09-04 02:15:00,59.9,56.0,29.98,SSW,199,6.0,7.0,87,0.00,,,0.00,VWS V15.00,2013-09-04 07:15:00,
2013-09-04 02:18:00,59.2,56.0,29.98,SSW,199,4.0,6.0,89,0.00,,SCT120,0.00,VWS V14.01,2013-09-04 07:18:00,
2013-09-04 02:23:00,59.2,56.0,29.98,SSW,199,5.0,6.0,89,0.00,,SCT120,0.00,VWS V14.01,2013-09-04 07:23:00,
2013-09-04 02:28:00,59.2,56.0,29.98,SSW,199,5.0,6.0,89,0.00,,SCT120,0.00,VWS V14.01,2013-09-04 07:28:00,
2013-09-04 02:30:00,59.6,55.7,29.98,SSW,199,5.0,7.0,87,0.00,,,0.00,VWS V15.00,2013-09-04 07:30:00,
2013-09-04 02:33:00,59.2,56.3,29.98,SSW,199,6.0,6.0,90,0.00,,SCT120,0.00,VWS V14.01,2013-09-04 07:33:00,
2013-09-04 02:38:00,59.2,56.3,29.98,SSW,199,5.0,7.0,90,0.00,,SCT120,0.00,VWS V14.01,2013-09-04 07:38:00,
2013-09-04 02:43:00,59.3,56.4,29.98,SSW,199,7.0,9.0,90,0.00,,BKN120,0.00,VWS V14.01,2013-09-04 07:43:00,
2013-09-04 02:45:00,59.5,55.6,29.98,SSW,199,6.0,7.0,87,0.00,,,0.00,VWS V15.00,2013-09-04 07:45:00,
2013-09-04 02:48:00,59.2,56.0,29.98,SSW,199,5.0,9.0,89,0.00,,BKN120,0.00,VWS V14.01,2013-09-04 07:48:00,
2013-09-04 02:53:00,59.0,55.8,29.98,SSW,199,7.0,9.0,89,0.00,,BKN120,0.00,VWS V14.01,2013-09-04 07:53:00,
2013-09-04 02:58:00,58.9,56.0,29.98,SSW,199,5.0,9.0,90,0.00,,BKN120,0.00,VWS V14.01,2013-09-04 07:58:00,
2013-09-04 03:00:00,59.5,56.0,29.98,SSW,199,7.0,7.0,88,0.00,,,0.00,VWS V15.00,2013-09-04 08:00:00,
2013-09-04 03:03:00,58.7,55.5,29.99,SSW,199,4.0,5.0,89,0.00,,BKN120,0.00,VWS V14.01,2013-09-04 08:03:00,
2013-09-04 03:08:00,58.6,55.7,29.99,SSW,199,6.0,6.0,90,0.00,,BKN120,0.00,VWS V14.01,2013-09-04 08:08:00,
2013-09-04 03:13:00,58.6,55.7,29.99,SSW,199,6.0,7.0,90,0.00,,BKN120,0.00,VWS V14.01,2013-09-04 08:13:00,
2013-09-04 03:15:00,59.2,56.0,29.98,SSW,199,6.0,9.0,89,0.00,,,0.00,VWS V15.00,2013-09-04 08:15:00,
2013-09-04 03:18:00,58.6,55.7,29.98,SSW,199,7.0,7.0,90,0.00,,BKN120,0.00,VWS V14.01,2013-09-04 08:18:00,
2013-09-04 03:23:00,58.4,55.8,29.98,SSW,199,5.0,7.0,91,0.00,,BKN120,0.00,VWS V14.01,2013-09-04 08:23:00,
2013-09-04 03:28:00,58.6,56.0,29.98,SSW,199,5.0,7.0,91,0.00,,BKN120,0.00,VWS V14.01,2013-09-04 08:28:00,
2013-09-04 03:30:00,59.2,56.0,29.98,SSW,199,6.0,6.0,89,0.00,,,0.00,VWS V15.00,2013-09-04 08:30:00,
2013-09-04 03:33:00,58.7,56.1,29.98,SSW,199,5.0,6.0,91,0.00,,BKN120,0.00,VWS V14.01,2013-09-04 08:33:00,
2013-09-04 03:38:00,58.7,56.1,29.98,SSW,199,5.0,6.0,91,0.00,,BKN120,0.00,VWS V14.01,2013-09-04 08:38:00,
2013-09-04 03:43:00,58.7,56.1,29.98,SSW,199,4.0,6.0,91,0.00,,SCT120,0.00,VWS V14.01,2013-09-04 08:43:00,
2013-09-04 03:45:00,59.2,56.3,29.98,SSW,199,7.0,9.0,90,0.00,,,0.00,VWS V15.00,2013-09-04 08:45:00,
2013-09-04 03:48:00,58.3,55.1,29.99,SSW,199,3.0,4.0,89,0.00,,SCT120,0.00,VWS V14.01,2013-09-04 08:48:00,
2013-09-04 03:53:00,57.6,54.1,29.99,SSW,199,3.0,4.0,88,0.00,,SCT120,0.00,VWS V14.01,2013-09-04 08:53:00,
2013-09-04 03:58:00,57.2,53.7,29.99,SSW,199,4.0,5.0,88,0.00,,SCT120,0.00,VWS V14.01,2013-09-04 08:58:00,
2013-09-04 04:00:00,58.9,56.0,29.99,SSW,199,5.0,9.0,90,0.00,,,0.00,VWS V15.00,2013-09-04 09:00:00,
2013-09-04 04:03:00,57.3,54.7,29.99,SSW,199,4.0,6.0,91,0.00,,SCT120,0.00,VWS V14.01,2013-09-04 09:03:00,
2013-09-04 04:08:00,57.6,55.0,29.99,SSW,199,6.0,6.0,91,0.00,,SCT120,0.00,VWS V14.01,2013-09-04 09:08:00,
2013-09-04 04:14:00,57.8,55.5,29.99,SSW,199,5.0,6.0,92,0.00,,SCT120,0.00,VWS V14.01,2013-09-04 09:14:00,
2013-09-04 04:15:00,58.6,55.7,29.98,SSW,199,6.0,7.0,90,0.00,,,0.00,VWS V15.00,2013-09-04 09:15:00,
2013-09-04 04:19:00,57.6,55.0,29.99,SSW,199,3.0,4.0,91,0.00,,SCT120,0.00,VWS V14.01,2013-09-04 09:19:00,
2013-09-04 04:24:00,57.3,54.4,29.99,SSW,199,5.0,5.0,90,0.00,,SCT120,0.00,VWS V14.01,2013-09-04 09:24:00,
2013-09-04 04:29:00,57.3,54.7,29.99,SSW,199,4.0,6.0,91,0.00,,SCT120,0.00,VWS V14.01,2013-09-04 09:29:00,
2013-09-04 04:30:00,58.7,56.1,29.98,SSW,199,6.0,7.0,91,0.00,,,0.00,VWS V15.00,2013-09-04 09:30:00,
2013-09-04 04:34:00,57.6,55.3,29.99,SSW,199,4.0,5.0,92,0.00,,SCT120,0.00,VWS V14.01,2013-09-04 09:34:00,
2013-09-04 04:39:00,57.8,55.5,29.99,SSW,199,5.0,6.0,92,0.00,,SCT120,0.00,VWS V14.01,2013-09-04 09:39:00,
2013-09-04 04:44:00,58.0,55.7,29.99,SSW,199,5.0,6.0,92,0.00,,CLR,0.00,VWS V14.01,2013-09-04 09:44:00,
2013-09-04 04:45:00,58.6,55.7,29.99,SSW,199,4.0,6.0,90,0.00,,,0.00,VWS V15.00,2013-09-04 09:45:00,
2013-09-04 04:49:00,58.0,55.7,29.99,SSW,199,3.0,6.0,92,0.00,,CLR,0.00,VWS V14.01,2013-09-04 09:49:00,
2013-09-04 04:54:00,57.6,55.0,29.99,SSW,199,0.0,6.0,91,0.00,,CLR,0.00,VWS V14.01,2013-09-04 09:54:00,
2013-09-04 04:59:00,57.0,54.1,29.99,SSW,199,0.0,6.0,90,0.00,,CLR,0.00,VWS V14.01,2013-09-04 09:59:00,
2013-09-04 05:00:00,57.3,54.4,29.99,SSW,199,5.0,5.0,90,0.00,,,0.00,VWS V15.00,2013-09-04 10:00:00,
2013-09-04 05:04:00,56.9,54.0,30.00,SSW,199,0.0,0.0,90,0.00,,CLR,0.00,VWS V14.01,2013-09-04 10:04:00,
2013-09-04 05:09:00,56.6,54.0,30.00,SSW,199,0.0,0.0,91,0.00,,CLR,0.00,VWS V14.01,2013-09-04 10:09:00,
2013-09-04 05:14:00,56.6,54.0,30.00,SSW,199,0.0,0.0,91,0.00,,CLR,0.00,VWS V14.01,2013-09-04 10:14:00,
2013-09-04 05:15:00,57.8,55.5,29.99,SSW,199,4.0,6.0,92,0.00,,,0.00,VWS V15.00,2013-09-04 10:15:00,
2013-09-04 05:19:00,56.6,54.3,30.01,SSW,199,0.0,0.0,92,0.00,,CLR,0.00,VWS V14.01,2013-09-04 10:19:00,
2013-09-04 05:24:00,56.6,54.3,30.01,SSW,199,0.0,0.0,92,0.00,,CLR,0.00,VWS V14.01,2013-09-04 10:24:00,
2013-09-04 05:29:00,56.6,54.3,30.01,SSW,199,0.0,0.0,92,0.00,,CLR,0.00,VWS V14.01,2013-09-04 10:29:00,
2013-09-04 05:30:00,57.5,55.2,29.99,SSW,199,5.0,6.0,92,0.00,,,0.00,VWS V15.00,2013-09-04 10:30:00,
2013-09-04 05:34:00,56.6,54.3,30.01,SSW,199,5.0,5.0,92,0.00,,CLR,0.00,VWS V14.01,2013-09-04 10:34:00,
2013-09-04 05:39:00,56.7,54.7,30.01,SSW,199,5.0,7.0,93,0.00,,CLR,0.00,VWS V14.01,2013-09-04 10:39:00,
2013-09-04 05:44:00,57.2,55.5,30.01,SSW,199,5.0,7.0,94,0.00,,CLR,0.00,VWS V14.01,2013-09-04 10:44:00,
2013-09-04 05:45:00,58.0,55.7,29.99,SSW,199,5.0,6.0,92,0.00,,,0.00,VWS V15.00,2013-09-04 10:45:00,
2013-09-04 05:49:00,57.3,55.6,30.01,SSW,199,5.0,6.0,94,0.00,,CLR,0.00,VWS V14.01,2013-09-04 10:49:00,
2013-09-04 05:54:00,57.5,55.8,30.01,SSW,199,6.0,7.0,94,0.00,,CLR,0.00,VWS V14.01,2013-09-04 10:54:00,
2013-09-04 05:59:00,57.6,55.9,30.01,SSW,199,6.0,8.0,94,0.00,,CLR,0.00,VWS V14.01,2013-09-04 10:59:00,
2013-09-04 06:00:00,57.0,54.1,30.00,SSW,199,0.0,6.0,90,0.00,,,0.00,VWS V15.00,2013-09-04 11:00:00,
2013-09-04 06:04:00,57.8,56.1,30.00,SSW,199,6.0,7.0,94,0.00,,CLR,0.00,VWS V14.01,2013-09-04 11:04:00,
2013-09-04 06:09:00,58.0,56.3,30.00,SSW,199,5.0,7.0,94,0.00,,CLR,0.00,VWS V14.01,2013-09-04 11:09:00,
2013-09-04 06:14:00,58.0,56.3,30.00,SSW,199,5.0,7.0,94,0.00,,CLR,0.00,VWS V14.01,2013-09-04 11:14:00,
2013-09-04 06:15:00,56.6,54.3,30.01,SSW,199,0.0,0.0,92,0.00,,,0.00,VWS V15.00,2013-09-04 11:15:00,
2013-09-04 06:19:00,58.1,56.4,30.02,SSW,199,3.0,6.0,94,0.00,,CLR,0.00,VWS V14.01,2013-09-04 11:19:00,
2013-09-04 06:24:00,58.3,56.6,30.02,SSW,199,4.0,6.0,94,0.00,,CLR,0.00,VWS V14.01,2013-09-04 11:24:00,
2013-09-04 06:29:00,58.3,56.3,30.02,SSW,199,5.0,6.0,93,0.00,,CLR,0.00,VWS V14.01,2013-09-04 11:29:00,
2013-09-04 06:30:00,56.6,54.6,30.01,SSW,199,0.0,0.0,93,0.00,,,0.00,VWS V15.00,2013-09-04 11:30:00,
2013-09-04 06:34:00,58.3,56.3,30.02,SSW,199,4.0,5.0,93,0.00,,CLR,0.00,VWS V14.01,2013-09-04 11:34:00,
2013-09-04 06:39:00,58.3,56.3,30.02,SSW,199,4.0,5.0,93,0.00,,CLR,0.00,VWS V14.01,2013-09-04 11:39:00,
2013-09-04 06:44:00,58.3,56.3,30.02,SSW,199,4.0,5.0,93,0.00,,CLR,0.00,VWS V14.01,2013-09-04 11:44:00,
2013-09-04 06:45:00,57.2,55.5,30.01,SSW,199,4.0,7.0,94,0.00,,,0.00,VWS V15.00,2013-09-04 11:45:00,
2013-09-04 06:49:00,58.4,56.4,30.02,SSW,199,4.0,5.0,93,0.00,,CLR,0.00,VWS V14.01,2013-09-04 11:49:00,
2013-09-04 06:55:00,58.3,56.3,30.02,SSW,199,5.0,5.0,93,0.00,,CLR,0.00,VWS V14.01,2013-09-04 11:55:00,
2013-09-04 07:00:00,58.3,56.3,30.02,SSW,199,4.0,6.0,93,0.00,,CLR,0.00,VWS V14.01,2013-09-04 12:00:00,
2013-09-04 07:05:00,58.4,56.4,30.03,SSW,199,5.0,5.0,93,0.00,,CLR,0.00,VWS V14.01,2013-09-04 12:05:00,
2013-09-04 07:10:00,58.6,56.6,30.03,SSW,199,5.0,5.0,93,0.00,,CLR,0.00,VWS V14.01,2013-09-04 12:10:00,
2013-09-04 07:15:00,58.6,56.6,30.03,SSW,199,3.0,5.0,93,0.00,,CLR,0.00,VWS V14.01,2013-09-04 12:15:00,
2013-09-04 07:20:00,58.7,56.7,30.04,SSW,199,3.0,3.0,93,0.00,,CLR,0.00,VWS V14.01,2013-09-04 12:20:00,
2013-09-04 07:25:00,58.7,56.7,30.04,SSW,199,3.0,3.0,93,0.00,,CLR,0.00,VWS V14.01,2013-09-04 12:25:00,
2013-09-04 07:30:00,58.9,56.9,30.04,SSW,199,4.0,5.0,93,0.00,,CLR,0.00,VWS V14.01,2013-09-04 12:30:00,
2013-09-04 07:35:00,58.9,56.9,30.04,SSW,199,2.0,4.0,93,0.00,,CLR,0.00,VWS V14.01,2013-09-04 12:35:00,
2013-09-04 07:40:00,59.0,57.0,30.04,SSW,199,0.0,4.0,93,0.00,,CLR,0.00,VWS V14.01,2013-09-04 12:40:00,
2013-09-04 07:45:00,59.3,57.3,30.04,SSW,199,0.0,4.0,93,0.00,,CLR,0.00,VWS V14.01,2013-09-04 12:45:00,
2013-09-04 07:50:00,59.5,57.2,30.04,SSW,199,0.0,0.0,92,0.00,,CLR,0.00,VWS V14.01,2013-09-04 12:50:00,
2013-09-04 07:55:00,59.6,57.3,30.04,SSW,199,0.0,0.0,92,0.00,,CLR,0.00,VWS V14.01,2013-09-04 12:55:00,
2013-09-04 08:00:00,59.8,57.5,30.04,SSW,199,0.0,0.0,92,0.00,,CLR,0.00,VWS V14.01,2013-09-04 13:00:00,
2013-09-04 08:05:00,59.8,57.5,30.05,SSW,199,0.0,0.0,92,0.00,,CLR,0.00,VWS V14.01,2013-09-04 13:05:00,
2013-09-04 08:10:00,59.9,57.6,30.05,SSW,199,0.0,0.0,92,0.00,,CLR,0.00,VWS V14.01,2013-09-04 13:10:00,
2013-09-04 08:15:00,60.1,57.5,30.05,SSW,199,0.0,0.0,91,0.00,,CLR,0.00,VWS V14.01,2013-09-04 13:15:00,
2013-09-04 08:20:00,60.2,57.6,30.05,SSW,199,0.0,0.0,91,0.00,,CLR,0.00,VWS V14.01,2013-09-04 13:20:00,
2013-09-04 08:25:00,60.5,57.6,30.05,SSW,199,0.0,0.0,90,0.00,,CLR,0.00,VWS V14.01,2013-09-04 13:25:00,
2013-09-04 08:30:00,60.7,57.8,30.05,SSW,199,0.0,0.0,90,0.00,,CLR,0.00,VWS V14.01,2013-09-04 13:30:00,
2013-09-04 08:35:00,61.0,58.0,30.05,SSW,199,0.0,0.0,90,0.00,,CLR,0.00,VWS V14.01,2013-09-04 13:35:00,
2013-09-04 08:40:00,61.3,58.0,30.05,SSW,199,0.0,0.0,89,0.00,,CLR,0.00,VWS V14.01,2013-09-04 13:40:00,
2013-09-04 08:45:00,61.6,58.3,30.05,SSW,199,0.0,0.0,89,0.00,,CLR,0.00,VWS V14.01,2013-09-04 13:45:00,
2013-09-04 08:50:00,62.1,58.8,30.05,SSW,199,0.0,0.0,89,0.00,,CLR,0.00,VWS V14.01,2013-09-04 13:50:00,
2013-09-04 08:55:00,62.4,58.5,30.05,SSW,199,0.0,0.0,87,0.00,,CLR,0.00,VWS V14.01,2013-09-04 13:55:00,
2013-09-04 09:00:00,62.7,58.8,30.05,SSW,199,0.0,0.0,87,0.00,,CLR,0.00,VWS V14.01,2013-09-04 14:00:00,
2013-09-04 09:05:00,62.9,58.7,30.05,SSW,199,0.0,0.0,86,0.00,,CLR,0.00,VWS V14.01,2013-09-04 14:05:00,
2013-09-04 09:10:00,63.2,59.0,30.05,SSW,199,0.0,0.0,86,0.00,,CLR,0.00,VWS V14.01,2013-09-04 14:10:00,
2013-09-04 09:15:00,63.4,59.2,30.05,SSW,199,0.0,0.0,86,0.00,,CLR,0.00,VWS V14.01,2013-09-04 14:15:00,
2013-09-04 09:20:00,63.7,59.4,30.05,SSW,199,0.0,0.0,86,0.00,,CLR,0.00,VWS V14.01,2013-09-04 14:20:00,
2013-09-04 09:25:00,63.9,59.3,30.05,SSW,199,2.0,3.0,85,0.00,,CLR,0.00,VWS V14.01,2013-09-04 14:25:00,
2013-09-04 09:30:00,64.0,59.4,30.06,SSW,201,1.0,6.0,85,0.00,,CLR,0.00,VWS V14.01,2013-09-04 14:30:00,
2013-09-04 09:35:00,64.3,59.4,30.06,SSW,201,3.0,6.0,84,0.00,,CLR,0.00,VWS V14.01,2013-09-04 14:35:00,
2013-09-04 09:40:00,64.8,59.9,30.06,SSW,201,0.0,6.0,84,0.00,,CLR,0.00,VWS V14.01,2013-09-04 14:40:00,
2013-09-04 09:45:00,61.6,58.3,30.05,SSW,199,0.0,0.0,89,0.00,,,0.00,VWS V15.00,2013-09-04 14:45:00,
2013-09-04 09:46:00,65.3,60.0,30.06,SSW,192,6.0,6.0,83,0.00,,CLR,0.00,VWS V14.01,2013-09-04 14:46:00,
2013-09-04 09:51:00,66.0,60.0,30.06,NE,38,3.0,9.0,81,0.00,,CLR,0.00,VWS V14.01,2013-09-04 14:51:00,
2013-09-04 09:56:00,66.4,60.4,30.06,NE,35,5.0,9.0,81,0.00,,CLR,0.00,VWS V14.01,2013-09-04 14:56:00,
2013-09-04 10:00:00,62.7,58.8,30.05,SSW,199,0.0,0.0,87,0.00,,,0.00,VWS V15.00,2013-09-04 15:00:00,
2013-09-04 10:01:00,66.9,60.2,30.06,NNE,30,2.0,9.0,79,0.00,,CLR,0.00,VWS V14.01,2013-09-04 15:01:00,
2013-09-04 10:06:00,67.3,60.6,30.06,NNE,30,1.0,6.0,79,0.00,,CLR,0.00,VWS V14.01,2013-09-04 15:06:00,
2013-09-04 10:11:00,67.8,60.7,30.06,NNE,29,3.0,6.0,78,0.00,,CLR,0.00,VWS V14.01,2013-09-04 15:11:00,
2013-09-04 10:15:00,63.4,59.2,30.05,SSW,199,0.0,0.0,86,0.00,,,0.00,VWS V15.00,2013-09-04 15:15:00,
2013-09-04 10:16:00,68.1,60.6,30.06,NNE,33,6.0,10.0,77,0.00,,CLR,0.00,VWS V14.01,2013-09-04 15:16:00,
2013-09-04 10:21:00,68.4,60.9,30.06,NNE,30,5.0,7.0,77,0.00,,CLR,0.00,VWS V14.01,2013-09-04 15:21:00,
2013-09-04 10:26:00,69.1,61.2,30.06,NNE,28,2.0,7.0,76,0.00,,CLR,0.00,VWS V14.01,2013-09-04 15:26:00,
2013-09-04 10:30:00,64.0,59.4,30.06,SSW,201,2.0,6.0,85,0.00,,,0.00,VWS V15.00,2013-09-04 15:30:00,
2013-09-04 10:31:00,69.3,61.0,30.07,NNE,28,5.0,12.0,75,0.00,,CLR,0.00,VWS V14.01,2013-09-04 15:31:00,
2013-09-04 10:36:00,69.6,61.3,30.07,NNE,21,6.0,11.0,75,0.00,,CLR,0.00,VWS V14.01,2013-09-04 15:36:00,
2013-09-04 10:41:00,70.1,61.4,30.07,NNE,14,3.0,11.0,74,0.00,,CLR,0.00,VWS V14.01,2013-09-04 15:41:00,
2013-09-04 10:45:00,65.5,59.9,30.06,South,191,3.0,6.0,82,0.00,,,0.00,VWS V15.00,2013-09-04 15:45:00,
2013-09-04 10:46:00,70.3,61.2,30.08,North,0,4.0,11.0,73,0.00,,CLR,0.00,VWS V14.01,2013-09-04 15:46:00,
2013-09-04 10:51:00,70.4,61.3,30.08,North,11,5.0,12.0,73,0.00,,CLR,0.00,VWS V14.01,2013-09-04 15:51:00,
2013-09-04 10:56:00,70.6,61.5,30.08,North,11,7.0,12.0,73,0.00,,CLR,0.00,VWS V14.01,2013-09-04 15:56:00,
2013-09-04 11:00:00,66.9,60.2,30.06,NNE,30,2.0,9.0,79,0.00,,,0.00,VWS V15.00,2013-09-04 16:00:00,
2013-09-04 11:01:00,70.9,61.8,30.08,North,11,3.0,12.0,73,0.00,,CLR,0.00,VWS V14.01,2013-09-04 16:01:00,
2013-09-04 11:06:00,71.3,61.8,30.08,NNE,18,6.0,10.0,72,0.00,,CLR,0.00,VWS V14.01,2013-09-04 16:06:00,
2013-09-04 11:11:00,71.6,62.1,30.08,NNE,29,5.0,11.0,72,0.00,,CLR,0.00,VWS V14.01,2013-09-04 16:11:00,
2013-09-04 11:15:00,68.1,60.6,30.06,NNE,31,6.0,10.0,77,0.00,,,0.00,VWS V15.00,2013-09-04 16:15:00,
2013-09-04 11:16:00,71.8,61.9,30.08,NE,44,7.0,11.0,71,0.00,,CLR,0.00,VWS V14.01,2013-09-04 16:16:00,
2013-09-04 11:21:00,72.3,62.4,30.08,NNE,33,4.0,9.0,71,0.00,,CLR,0.00,VWS V14.01,2013-09-04 16:21:00,
2013-09-04 11:26:00,72.7,62.4,30.08,NNE,29,9.0,12.0,70,0.00,,CLR,0.00,VWS V14.01,2013-09-04 16:26:00,
2013-09-04 11:30:00,69.3,61.0,30.07,NNE,28,4.0,12.0,75,0.00,,,0.00,VWS V15.00,2013-09-04 16:30:00,
2013-09-04 11:31:00,73.2,62.8,30.08,NE,38,6.0,6.0,70,0.00,,CLR,0.00,VWS V14.01,2013-09-04 16:31:00,
2013-09-04 11:36:00,73.9,62.7,30.08,North,354,12.0,12.0,68,0.00,,CLR,0.00,VWS V14.01,2013-09-04 16:36:00,
2013-09-04 11:41:00,73.9,63.1,30.08,North,8,10.0,12.0,69,0.00,,BKN015,0.00,VWS V14.01,2013-09-04 16:41:00,
2013-09-04 11:45:00,70.3,61.2,30.08,North,0,4.0,11.0,73,0.00,,,0.00,VWS V15.00,2013-09-04 16:45:00,
2013-09-04 11:46:00,73.9,62.7,30.09,North,7,10.0,11.0,68,0.00,,BKN015,0.00,VWS V14.01,2013-09-04 16:46:00,
2013-09-04 11:51:00,73.9,63.1,30.09,North,10,8.0,12.0,69,0.00,,OVC013,0.00,VWS V14.01,2013-09-04 16:51:00,
2013-09-04 11:56:00,74.2,63.0,30.09,NNE,20,8.0,12.0,68,0.00,,OVC013,0.00,VWS V14.01,2013-09-04 16:56:00,
2013-09-04 12:00:00,70.9,61.8,30.08,North,11,2.0,12.0,73,0.00,,,0.00,VWS V15.00,2013-09-04 17:00:00,
2013-09-04 12:01:00,74.2,63.0,30.09,North,355,6.0,10.0,68,0.00,,OVC013,0.00,VWS V14.01,2013-09-04 17:01:00,
2013-09-04 12:06:00,74.6,62.9,30.09,NNE,31,9.0,11.0,67,0.00,,OVC013,0.00,VWS V14.01,2013-09-04 17:06:00,
2013-09-04 12:11:00,74.9,62.8,30.09,North,2,11.0,11.0,66,0.00,,OVC013,0.00,VWS V14.01,2013-09-04 17:11:00,
2013-09-04 12:15:00,71.8,61.9,30.08,NE,44,7.0,11.0,71,0.00,,,0.00,VWS V15.00,2013-09-04 17:15:00,
2013-09-04 12:16:00,75.3,63.2,30.09,NNE,14,6.0,11.0,66,0.00,,OVC013,0.00,VWS V14.01,2013-09-04 17:16:00,
2013-09-04 12:21:00,75.6,63.0,30.09,NNE,21,6.0,11.0,65,0.00,,OVC013,0.00,VWS V14.01,2013-09-04 17:21:00,
2013-09-04 12:26:00,76.1,63.0,30.09,NE,39,5.0,13.0,64,0.00,,OVC013,0.00,VWS V14.01,2013-09-04 17:26:00,
2013-09-04 12:30:00,73.2,62.8,30.08,NE,38,4.0,12.0,70,0.00,,,0.00,VWS V15.00,2013-09-04 17:30:00,
2013-09-04 12:31:00,76.1,62.6,30.09,NE,38,6.0,7.0,63,0.00,,OVC013,0.00,VWS V14.01,2013-09-04 17:31:00,
2013-09-04 12:37:00,76.0,63.0,30.09,NNE,28,10.0,14.0,64,0.00,,OVC013,0.00,VWS V14.01,2013-09-04 17:37:00,
2013-09-04 12:42:00,76.8,63.3,30.09,North,11,10.0,14.0,63,0.00,,OVC013,0.00,VWS V14.01,2013-09-04 17:42:00,
2013-09-04 12:45:00,73.9,63.1,30.09,NNE,14,11.0,14.0,69,0.00,,,0.00,VWS V15.00,2013-09-04 17:45:00,
2013-09-04 12:47:00,77.6,63.1,30.09,NNE,24,5.0,12.0,61,0.00,,OVC013,0.00,VWS V14.01,2013-09-04 17:47:00,
2013-09-04 12:52:00,77.4,62.9,30.09,NE,40,9.0,13.0,61,0.00,,OVC015,0.00,VWS V14.01,2013-09-04 17:52:00,
2013-09-04 12:57:00,77.0,62.5,30.09,NE,42,7.0,14.0,61,0.00,,OVC015,0.00,VWS V14.01,2013-09-04 17:57:00,
2013-09-04 13:00:00,74.2,63.0,30.09,NNW,347,10.0,13.0,68,0.00,,,0.00,VWS V15.00,2013-09-04 18:00:00,
2013-09-04 13:02:00,76.5,63.0,30.09,NE,35,6.0,6.0,63,0.00,,OVC015,0.00,VWS V14.01,2013-09-04 18:02:00,
2013-09-04 13:07:00,77.0,63.0,30.09,NNE,16,10.0,10.0,62,0.00,,OVC015,0.00,VWS V14.01,2013-09-04 18:07:00,
2013-09-04 13:12:00,78.1,63.1,30.09,NE,36,1.0,10.0,60,0.00,,OVC015,0.00,VWS V14.01,2013-09-04 18:12:00,
2013-09-04 13:15:00,75.3,63.2,30.09,North,2,11.0,12.0,66,0.00,,,0.00,VWS V15.00,2013-09-04 18:15:00,
2013-09-04 13:17:00,79.4,63.3,30.09,North,9,3.0,7.0,58,0.00,,OVC015,0.00,VWS V14.01,2013-09-04 18:17:00,
2013-09-04 13:22:00,79.0,63.0,30.09,NNE,18,4.0,10.0,58,0.00,,OVC015,0.00,VWS V14.01,2013-09-04 18:22:00,
2013-09-04 13:27:00,78.5,62.5,30.09,NNE,18,5.0,10.0,58,0.00,,OVC015,0.00,VWS V14.01,2013-09-04 18:27:00,
2013-09-04 13:30:00,76.1,63.0,30.09,NE,38,4.0,13.0,64,0.00,,,0.00,VWS V15.00,2013-09-04 18:30:00,
2013-09-04 13:32:00,78.1,62.6,30.09,NNE,18,6.0,6.0,59,0.00,,OVC015,0.00,VWS V14.01,2013-09-04 18:32:00,
2013-09-04 13:37:00,78.6,63.1,30.09,North,9,9.0,10.0,59,0.00,,OVC015,0.00,VWS V14.01,2013-09-04 18:37:00,
2013-09-04 13:42:00,79.2,63.2,30.09,NNE,12,9.0,11.0,58,0.00,,CLR,0.00,VWS V14.01,2013-09-04 18:42:00,
2013-09-04 13:45:00,77.4,62.9,30.09,NNE,18,9.0,15.0,61,0.00,,,0.00,VWS V15.00,2013-09-04 18:45:00,
2013-09-04 13:47:00,79.6,63.5,30.09,North,2,2.0,3.0,58,0.00,,CLR,0.00,VWS V14.01,2013-09-04 18:47:00,
2013-09-04 13:52:00,79.6,63.0,30.09,NNE,18,6.0,9.0,57,0.00,,CLR,0.00,VWS V14.01,2013-09-04 18:52:00,
2013-09-04 13:57:00,78.8,62.3,30.09,NNE,18,0.0,9.0,57,0.00,,CLR,0.00,VWS V14.01,2013-09-04 18:57:00,
2013-09-04 14:00:00,76.5,62.5,30.09,NNE,33,6.0,14.0,62,0.00,,,0.00,VWS V15.00,2013-09-04 19:00:00,
2013-09-04 14:02:00,77.9,62.4,30.09,NNE,18,0.0,5.0,59,0.00,,CLR,0.00,VWS V14.01,2013-09-04 19:02:00,
2013-09-04 14:07:00,77.9,62.9,30.09,NNE,20,6.0,9.0,60,0.00,,CLR,0.00,VWS V14.01,2013-09-04 19:07:00,
2013-09-04 14:12:00,77.6,62.2,30.09,NNE,28,4.0,12.0,59,0.00,,CLR,0.00,VWS V14.01,2013-09-04 19:12:00,
2013-09-04 14:15:00,79.0,63.5,30.09,North,10,6.0,10.0,59,0.00,,,0.00,VWS V15.00,2013-09-04 19:15:00,
2013-09-04 14:17:00,77.6,62.2,30.09,NNE,18,7.0,7.0,59,0.00,,CLR,0.00,VWS V14.01,2013-09-04 19:17:00,
2013-09-04 14:22:00,77.7,62.2,30.09,North,7,8.0,8.0,59,0.00,,CLR,0.00,VWS V14.01,2013-09-04 19:22:00,
2013-09-04 14:27:00,78.3,62.3,30.09,North,354,7.0,10.0,58,0.00,,CLR,0.00,VWS V14.01,2013-09-04 19:27:00,
2013-09-04 14:30:00,78.3,63.3,30.09,NNE,18,3.0,10.0,60,0.00,,,0.00,VWS V15.00,2013-09-04 19:30:00,
2013-09-04 14:32:00,78.3,62.3,30.08,North,0,7.0,7.0,58,0.00,,CLR,0.00,VWS V14.01,2013-09-04 19:32:00,
2013-09-04 14:37:00,78.8,62.8,30.08,North,359,4.0,11.0,58,0.00,,CLR,0.00,VWS V14.01,2013-09-04 19:37:00,
2013-09-04 14:42:00,79.4,62.3,30.08,North,359,3.0,11.0,56,0.00,,CLR,0.00,VWS V14.01,2013-09-04 19:42:00,
2013-09-04 14:45:00,79.6,63.0,30.09,North,2,3.0,11.0,57,0.00,,,0.00,VWS V15.00,2013-09-04 19:45:00,
2013-09-04 14:47:00,79.4,62.3,30.07,ENE,61,3.0,11.0,56,0.00,,CLR,0.00,VWS V14.01,2013-09-04 19:47:00,
2013-09-04 14:52:00,79.8,62.7,30.07,ENE,61,3.0,11.0,56,0.00,,CLR,0.00,VWS V14.01,2013-09-04 19:52:00,
2013-09-04 14:57:00,80.1,62.5,30.07,ENE,59,1.0,11.0,55,0.00,,CLR,0.00,VWS V14.01,2013-09-04 19:57:00,
2013-09-04 15:00:00,78.1,62.6,30.09,NNE,18,5.0,9.0,59,0.00,,,0.00,VWS V15.00,2013-09-04 20:00:00,
2013-09-04 15:02:00,80.7,63.0,30.07,NE,52,1.0,4.0,55,0.00,,CLR,0.00,VWS V14.01,2013-09-04 20:02:00,
2013-09-04 15:07:00,81.2,63.0,30.07,NNE,30,7.0,8.0,54,0.00,,CLR,0.00,VWS V14.01,2013-09-04 20:07:00,
2013-09-04 15:12:00,80.9,62.2,30.07,NNE,18,7.0,10.0,53,0.00,,CLR,0.00,VWS V14.01,2013-09-04 20:12:00,
2013-09-04 15:15:00,77.6,62.2,30.09,NNE,18,4.0,12.0,59,0.00,,,0.00,VWS V15.00,2013-09-04 20:15:00,
2013-09-04 15:17:00,79.9,61.8,30.07,NNE,26,6.0,10.0,54,0.00,,CLR,0.00,VWS V14.01,2013-09-04 20:17:00,
2013-09-04 15:22:00,79.4,61.8,30.07,NNE,26,3.0,10.0,55,0.00,,CLR,0.00,VWS V14.01,2013-09-04 20:22:00,
2013-09-04 15:28:00,79.8,61.7,30.07,NE,45,9.0,12.0,54,0.00,,CLR,0.00,VWS V14.01,2013-09-04 20:28:00,
2013-09-04 15:30:00,78.3,61.8,30.08,North,0,4.0,11.0,57,0.00,,OVC016,0.00,VWS V15.00,2013-09-04 20:30:00,
2013-09-04 15:33:00,80.3,61.6,30.07,North,2,9.0,12.0,53,0.00,,CLR,0.00,VWS V14.01,2013-09-04 20:33:00,
2013-09-04 15:38:00,80.7,62.0,30.07,NNE,16,9.0,12.0,53,0.00,,CLR,0.00,VWS V14.01,2013-09-04 20:38:00,
2013-09-04 15:43:00,80.7,61.5,30.07,NE,47,5.0,14.0,52,0.00,,SCT025,0.00,VWS V14.01,2013-09-04 20:43:00,
2013-09-04 15:45:00,79.4,62.8,30.07,NE,53,11.0,11.0,57,0.00,,,0.00,VWS V15.00,2013-09-04 20:45:00,
2013-09-04 15:48:00,79.9,61.3,30.07,NNE,24,4.0,5.0,53,0.00,,SCT025,0.00,VWS V14.01,2013-09-04 20:48:00,
2013-09-04 15:53:00,79.8,61.2,30.07,NNE,18,6.0,12.0,53,0.00,,SCT027,0.00,VWS V14.01,2013-09-04 20:53:00,
2013-09-04 15:58:00,79.2,61.1,30.07,NE,35,5.0,12.0,54,0.00,,SCT027,0.00,VWS V14.01,2013-09-04 20:58:00,
2013-09-04 16:00:00,80.5,63.4,30.07,NE,52,4.0,11.0,56,0.00,,,0.00,VWS V15.00,2013-09-04 21:00:00,
2013-09-04 16:03:00,79.4,61.3,30.07,NE,35,10.0,12.0,54,0.00,,SCT027,0.00,VWS V14.01,2013-09-04 21:03:00,
2013-09-04 16:08:00,79.4,61.3,30.07,NNE,21,10.0,13.0,54,0.00,,SCT027,0.00,VWS V14.01,2013-09-04 21:08:00,
2013-09-04 16:13:00,79.4,61.3,30.07,NNE,22,6.0,13.0,54,0.00,,SCT027,0.00,VWS V14.01,2013-09-04 21:13:00,
2013-09-04 16:15:00,80.3,62.2,30.07,NNE,24,9.0,11.0,54,0.00,,,0.00,VWS V15.00,2013-09-04 21:15:00,
2013-09-04 16:18:00,79.6,61.5,30.07,NE,37,7.0,11.0,54,0.00,,SCT027,0.00,VWS V14.01,2013-09-04 21:18:00,
2013-09-04 16:23:00,80.1,60.9,30.07,NE,48,6.0,11.0,52,0.00,,SCT027,0.00,VWS V14.01,2013-09-04 21:23:00,
2013-09-04 16:28:00,80.5,61.3,30.07,NE,52,5.0,11.0,52,0.00,,SCT027,0.00,VWS V14.01,2013-09-04 21:28:00,
2013-09-04 16:30:00,80.1,61.4,30.07,NE,45,6.0,12.0,53,0.00,,,0.00,VWS V15.00,2013-09-04 21:30:00,
2013-09-04 16:33:00,80.1,60.4,30.07,NNE,16,3.0,7.0,51,0.00,,SCT027,0.00,VWS V14.01,2013-09-04 21:33:00,
2013-09-04 16:38:00,79.8,60.1,30.07,NNE,16,0.0,7.0,51,0.00,,SCT027,0.00,VWS V14.01,2013-09-04 21:38:00,
2013-09-04 16:43:00,80.5,60.2,30.07,NNE,30,7.0,9.0,50,0.00,,CLR,0.00,VWS V14.01,2013-09-04 21:43:00,
2013-09-04 16:45:00,79.9,61.3,30.07,NNE,25,3.0,14.0,53,0.00,,,0.00,VWS V15.00,2013-09-04 21:45:00,
2013-09-04 16:48:00,80.1,59.2,30.07,NNE,30,2.0,5.0,49,0.00,,CLR,0.00,VWS V14.01,2013-09-04 21:48:00,
2013-09-04 16:53:00,80.5,59.6,30.07,NNE,30,3.0,5.0,49,0.00,,CLR,0.00,VWS V14.01,2013-09-04 21:53:00,
2013-09-04 16:58:00,80.7,59.8,30.07,NE,36,6.0,10.0,49,0.00,,CLR,0.00,VWS V14.01,2013-09-04 21:58:00,
2013-09-04 17:00:00,79.4,61.3,30.07,NE,40,9.0,12.0,54,0.00,,,0.00,VWS V15.00,2013-09-04 22:00:00,
2013-09-04 17:03:00,80.3,58.2,30.07,NNE,28,4.0,6.0,47,0.00,,CLR,0.00,VWS V14.01,2013-09-04 22:03:00,
2013-09-04 17:08:00,79.8,58.4,30.07,NNE,30,3.0,7.0,48,0.00,,CLR,0.00,VWS V14.01,2013-09-04 22:08:00,
2013-09-04 17:13:00,79.2,58.4,30.07,NNE,30,5.0,7.0,49,0.00,,CLR,0.00,VWS V14.01,2013-09-04 22:13:00,
2013-09-04 17:15:00,79.6,61.5,30.07,NE,41,7.0,13.0,54,0.00,,,0.00,VWS V15.00,2013-09-04 22:15:00,
2013-09-04 17:18:00,78.6,58.4,30.07,NNE,30,2.0,4.0,50,0.00,,CLR,0.00,VWS V14.01,2013-09-04 22:18:00,
2013-09-04 17:23:00,78.6,57.3,30.07,NNE,18,6.0,8.0,48,0.00,,CLR,0.00,VWS V14.01,2013-09-04 22:23:00,
2013-09-04 17:28:00,78.6,57.9,30.07,NNE,18,5.0,8.0,49,0.00,,CLR,0.00,VWS V14.01,2013-09-04 22:28:00,
2013-09-04 17:30:00,80.3,60.5,30.07,NNE,16,4.0,11.0,51,0.00,,,0.00,VWS V15.00,2013-09-04 22:30:00,
2013-09-04 17:33:00,78.6,56.7,30.07,NNE,16,5.0,6.0,47,0.00,,CLR,0.00,VWS V14.01,2013-09-04 22:33:00,
2013-09-04 17:38:00,78.5,56.6,30.07,NNE,16,2.0,6.0,47,0.00,,CLR,0.00,VWS V14.01,2013-09-04 22:38:00,
2013-09-04 17:43:00,78.8,56.3,30.07,NNE,12,2.0,9.0,46,0.00,,CLR,0.00,VWS V14.01,2013-09-04 22:43:00,
2013-09-04 17:45:00,80.3,59.4,30.07,NNE,30,3.0,9.0,49,0.00,,,0.00,VWS V15.00,2013-09-04 22:45:00,
2013-09-04 17:48:00,79.4,56.8,30.08,NNE,12,5.0,5.0,46,0.00,,CLR,0.00,VWS V14.01,2013-09-04 22:48:00,
2013-09-04 17:53:00,79.8,56.6,30.08,NNE,12,3.0,6.0,45,0.00,,CLR,0.00,VWS V14.01,2013-09-04 22:53:00,
2013-09-04 17:58:00,79.9,57.3,30.08,NNE,12,3.0,6.0,46,0.00,,CLR,0.00,VWS V14.01,2013-09-04 22:58:00,
2013-09-04 18:00:00,80.5,59.0,30.07,NNE,28,5.0,10.0,48,0.00,,,0.00,VWS V15.00,2013-09-04 23:00:00,
2013-09-04 18:03:00,79.8,57.2,30.07,NNE,12,5.0,5.0,46,0.00,,CLR,0.00,VWS V14.01,2013-09-04 23:03:00,
2013-09-04 18:08:00,79.2,57.2,30.07,North,9,5.0,7.0,47,0.00,,CLR,0.00,VWS V14.01,2013-09-04 23:08:00,
2013-09-04 18:13:00,78.8,57.5,30.07,North,9,1.0,7.0,48,0.00,,CLR,0.00,VWS V14.01,2013-09-04 23:13:00,
2013-09-04 18:15:00,78.8,58.6,30.07,NNE,31,2.0,7.0,50,0.00,,,0.00,VWS V15.00,2013-09-04 23:15:00,
2013-09-04 18:18:00,78.8,58.0,30.08,North,7,4.0,7.0,49,0.00,,CLR,0.00,VWS V14.01,2013-09-04 23:18:00,
2013-09-04 18:23:00,77.9,58.3,30.08,North,7,6.0,7.0,51,0.00,,CLR,0.00,VWS V14.01,2013-09-04 23:23:00,
2013-09-04 18:29:00,77.2,58.2,30.08,North,7,7.0,7.0,52,0.00,,CLR,0.00,VWS V14.01,2013-09-04 23:29:00,
2013-09-04 18:30:00,78.6,56.7,30.07,NNE,16,5.0,8.0,47,0.00,,,0.00,VWS V15.00,2013-09-04 23:30:00,
2013-09-04 18:34:00,76.5,58.6,30.08,North,5,5.0,9.0,54,0.00,,CLR,0.00,VWS V14.01,2013-09-04 23:34:00,
2013-09-04 18:39:00,75.8,58.5,30.08,North,4,9.0,11.0,55,0.00,,CLR,0.00,VWS V14.01,2013-09-04 23:39:00,
2013-09-04 18:44:00,75.3,58.5,30.08,North,0,9.0,11.0,56,0.00,,CLR,0.00,VWS V14.01,2013-09-04 23:44:00,
2013-09-04 18:45:00,79.0,55.9,30.08,NNE,12,5.0,9.0,45,0.00,,,0.00,VWS V15.00,2013-09-04 23:45:00,
2013-09-04 18:49:00,74.6,58.9,30.08,North,2,6.0,10.0,58,0.00,,CLR,0.00,VWS V14.01,2013-09-04 23:49:00,
2013-09-04 18:54:00,74.2,59.0,30.08,North,2,6.0,10.0,59,0.00,,CLR,0.00,VWS V14.01,2013-09-04 23:54:00,
2013-09-04 18:59:00,73.7,59.0,30.08,North,359,5.0,11.0,60,0.00,,CLR,0.00,VWS V14.01,2013-09-04 23:59:00,
2013-09-04 19:00:00,79.8,57.2,30.07,NNE,12,3.0,6.0,46,0.00,,,0.00,VWS V15.00,2013-09-05 00:00:00,
2013-09-04 19:04:00,73.3,59.0,30.08,North,357,9.0,9.0,61,0.00,,CLR,0.00,VWS V14.01,2013-09-05 00:04:00,
2013-09-04 19:09:00,73.0,59.2,30.08,North,356,8.0,9.0,62,0.00,,CLR,0.00,VWS V14.01,2013-09-05 00:09:00,
2013-09-04 19:14:00,72.7,59.4,30.08,North,357,5.0,9.0,63,0.00,,CLR,0.00,VWS V14.01,2013-09-05 00:14:00,
2013-09-04 19:15:00,79.0,57.7,30.08,North,9,3.0,7.0,48,0.00,,,0.00,VWS V15.00,2013-09-05 00:15:00,
2013-09-04 19:19:00,72.1,58.8,30.08,North,357,3.0,6.0,63,0.00,,CLR,0.00,VWS V14.01,2013-09-05 00:19:00,
2013-09-04 19:24:00,71.6,59.2,30.08,North,357,6.0,9.0,65,0.00,,CLR,0.00,VWS V14.01,2013-09-05 00:24:00,
2013-09-04 19:29:00,71.3,58.9,30.08,North,357,5.0,9.0,65,0.00,,CLR,0.00,VWS V14.01,2013-09-05 00:29:00,
2013-09-04 19:30:00,76.8,58.4,30.08,North,6,4.0,8.0,53,0.00,,,0.00,VWS V15.00,2013-09-05 00:30:00,
2013-09-04 19:34:00,70.8,58.9,30.09,North,0,5.0,7.0,66,0.00,,CLR,0.00,VWS V14.01,2013-09-05 00:34:00,
2013-09-04 19:39:00,70.4,58.9,30.09,North,0,4.0,7.0,67,0.00,,CLR,0.00,VWS V14.01,2013-09-05 00:39:00,
2013-09-04 19:44:00,69.9,58.5,30.09,North,0,3.0,7.0,67,0.00,,CLR,0.00,VWS V14.01,2013-09-05 00:44:00,
2013-09-04 19:45:00,74.9,58.7,30.08,North,0,5.0,11.0,57,0.00,,,0.00,VWS V15.00,2013-09-05 00:45:00,
2013-09-04 19:49:00,69.6,58.2,30.09,North,0,6.0,6.0,67,0.00,,CLR,0.00,VWS V14.01,2013-09-05 00:49:00,
2013-09-04 19:54:00,69.3,57.9,30.09,North,4,5.0,9.0,67,0.00,,CLR,0.00,VWS V14.01,2013-09-05 00:54:00,
2013-09-04 19:59:00,68.9,57.9,30.09,North,9,5.0,9.0,68,0.00,,CLR,0.00,VWS V14.01,2013-09-05 00:59:00,
2013-09-04 20:00:00,73.5,59.2,30.08,North,4,6.0,11.0,61,0.00,,,0.00,VWS V15.00,2013-09-05 01:00:00,
2013-09-04 20:04:00,68.6,57.6,30.10,North,10,3.0,7.0,68,0.00,,CLR,0.00,VWS V14.01,2013-09-05 01:04:00,
2013-09-04 20:09:00,68.3,57.8,30.10,North,10,5.0,7.0,69,0.00,,CLR,0.00,VWS V14.01,2013-09-05 01:09:00,
2013-09-04 20:14:00,67.8,57.3,30.10,North,11,4.0,7.0,69,0.00,,CLR,0.00,VWS V14.01,2013-09-05 01:14:00,
2013-09-04 20:15:00,72.5,59.2,30.08,North,357,4.0,9.0,63,0.00,,,0.00,VWS V15.00,2013-09-05 01:15:00,
2013-09-04 20:19:00,67.4,56.9,30.10,North,11,5.0,6.0,69,0.00,,CLR,0.00,VWS V14.01,2013-09-05 01:19:00,
2013-09-04 20:24:00,67.1,57.0,30.10,North,11,4.0,6.0,70,0.00,,CLR,0.00,VWS V14.01,2013-09-05 01:24:00,
2013-09-04 20:29:00,66.6,56.5,30.10,North,11,5.0,7.0,70,0.00,,CLR,0.00,VWS V14.01,2013-09-05 01:29:00,
2013-09-04 20:30:00,71.1,59.2,30.09,North,358,6.0,9.0,66,0.00,,,0.00,VWS V15.00,2013-09-05 01:30:00,
2013-09-04 20:34:00,66.3,56.6,30.10,North,11,4.0,5.0,71,0.00,,CLR,0.00,VWS V14.01,2013-09-05 01:34:00,
2013-09-04 20:39:00,66.0,56.7,30.10,North,11,5.0,6.0,72,0.00,,CLR,0.00,VWS V14.01,2013-09-05 01:39:00,
2013-09-04 20:44:00,65.6,56.3,30.10,North,11,4.0,6.0,72,0.00,,CLR,0.00,VWS V14.01,2013-09-05 01:44:00,
2013-09-04 20:45:00,69.8,58.4,30.09,North,0,3.0,7.0,67,0.00,,,0.00,VWS V15.00,2013-09-05 01:45:00,
2013-09-04 20:49:00,65.3,56.0,30.11,North,11,5.0,6.0,72,0.00,,CLR,0.00,VWS V14.01,2013-09-05 01:49:00,
2013-09-04 20:54:00,65.2,56.0,30.11,North,11,5.0,6.0,72,0.00,,CLR,0.00,VWS V14.01,2013-09-05 01:54:00,
2013-09-04 21:00:00,64.8,56.0,30.11,NNE,12,6.0,6.0,73,0.00,,CLR,0.00,VWS V14.01,2013-09-05 02:00:00,
2013-09-04 21:05:00,64.5,55.7,30.11,NNE,14,5.0,6.0,73,0.00,,CLR,0.00,VWS V14.01,2013-09-05 02:05:00,
2013-09-04 21:10:00,64.3,55.5,30.11,NNE,14,6.0,6.0,73,0.00,,CLR,0.00,VWS V14.01,2013-09-05 02:10:00,
2013-09-04 21:15:00,64.2,55.4,30.11,NNE,14,3.0,6.0,73,0.00,,CLR,0.00,VWS V14.01,2013-09-05 02:15:00,
2013-09-04 21:20:00,64.0,55.2,30.11,NNE,14,4.0,4.0,73,0.00,,CLR,0.00,VWS V14.01,2013-09-05 02:20:00,
2013-09-04 21:25:00,63.7,55.3,30.11,NNE,14,4.0,5.0,74,0.00,,CLR,0.00,VWS V14.01,2013-09-05 02:25:00,
2013-09-04 21:30:00,63.5,55.4,30.11,NNE,14,4.0,5.0,75,0.00,,CLR,0.00,VWS V14.01,2013-09-05 02:30:00,
2013-09-04 21:35:00,63.5,55.4,30.12,NNE,14,3.0,5.0,75,0.00,,CLR,0.00,VWS V14.01,2013-09-05 02:35:00,
2013-09-04 21:40:00,63.4,55.3,30.12,NNE,14,3.0,5.0,75,0.00,,CLR,0.00,VWS V14.01,2013-09-05 02:40:00,
2013-09-04 21:45:00,63.4,55.3,30.12,NNE,14,5.0,5.0,75,0.00,,CLR,0.00,VWS V14.01,2013-09-05 02:45:00,
2013-09-04 21:50:00,63.2,55.2,30.12,NNE,14,4.0,5.0,75,0.00,,CLR,0.00,VWS V14.01,2013-09-05 02:50:00,
2013-09-04 21:55:00,63.2,55.2,30.12,NNE,14,4.0,5.0,75,0.00,,CLR,0.00,VWS V14.01,2013-09-05 02:55:00,
2013-09-04 22:00:00,63.1,55.1,30.12,NNE,14,4.0,5.0,75,0.00,,CLR,0.00,VWS V14.01,2013-09-05 03:00:00,
2013-09-04 22:05:00,63.1,55.1,30.12,NNE,14,3.0,4.0,75,0.00,,CLR,0.00,VWS V14.01,2013-09-05 03:05:00,
2013-09-04 22:10:00,63.1,55.1,30.12,NNE,14,5.0,6.0,75,0.00,,CLR,0.00,VWS V14.01,2013-09-05 03:10:00,
2013-09-04 22:15:00,63.1,55.4,30.12,NNE,15,6.0,6.0,76,0.00,,CLR,0.00,VWS V14.01,2013-09-05 03:15:00,
2013-09-04 22:20:00,62.9,55.2,30.12,NNE,16,6.0,6.0,76,0.00,,CLR,0.00,VWS V14.01,2013-09-05 03:20:00,
2013-09-04 22:25:00,62.9,55.2,30.12,NNE,16,5.0,6.0,76,0.00,,CLR,0.00,VWS V14.01,2013-09-05 03:25:00,
2013-09-04 22:30:00,62.9,55.2,30.13,NNE,17,5.0,6.0,76,0.00,,CLR,0.00,VWS V14.01,2013-09-05 03:30:00,
2013-09-04 22:35:00,62.9,55.6,30.13,NNE,21,4.0,7.0,77,0.00,,CLR,0.00,VWS V14.01,2013-09-05 03:35:00,
2013-09-04 22:40:00,62.9,55.6,30.13,NNE,22,6.0,7.0,77,0.00,,CLR,0.00,VWS V14.01,2013-09-05 03:40:00,
2013-09-04 22:45:00,62.9,55.9,30.13,NNE,23,4.0,7.0,78,0.00,,CLR,0.00,VWS V14.01,2013-09-05 03:45:00,
2013-09-04 22:50:00,62.7,55.8,30.13,NNE,25,6.0,7.0,78,0.00,,CLR,0.00,VWS V14.01,2013-09-05 03:50:00,
2013-09-04 22:55:00,62.6,55.3,30.13,NE,38,6.0,9.0,77,0.00,,CLR,0.00,VWS V14.01,2013-09-05 03:55:00,
2013-09-04 23:00:00,62.6,55.7,30.13,NE,41,4.0,9.0,78,0.00,,CLR,0.00,VWS V14.01,2013-09-05 04:00:00,
2013-09-04 23:01:00,62.6,55.7,30.13,NE,41,5.0,9.0,78,0.00,,CLR,0.00,VWS V14.01,2013-09-05 04:01:00,
2013-09-04 23:03:00,62.6,55.7,30.13,NE,41,4.0,6.0,78,0.00,,CLR,0.00,VWS V14.01,2013-09-05 04:03:00,
2013-09-04 23:05:00,62.6,55.7,30.13,NE,42,5.0,7.0,78,0.00,,CLR,0.00,VWS V14.01,2013-09-05 04:05:00,
2013-09-04 23:07:00,62.6,55.7,30.13,NE,43,7.0,7.0,78,0.00,,CLR,0.00,VWS V14.01,2013-09-05 04:07:00,
2013-09-04 23:08:00,62.6,55.7,30.13,NE,43,4.0,7.0,78,0.00,,CLR,0.00,VWS V14.01,2013-09-05 04:08:00,
2013-09-04 23:13:00,62.6,55.3,30.13,NE,47,5.0,8.0,77,0.00,,CLR,0.00,VWS V14.01,2013-09-05 04:13:00,
2013-09-04 23:14:00,62.6,55.3,30.13,NE,47,3.0,8.0,77,0.00,,CLR,0.00,VWS V14.01,2013-09-05 04:14:00,
2013-09-04 23:15:00,63.1,55.4,30.12,NNE,16,4.0,7.0,76,0.00,,,0.00,VWS V15.00,2013-09-05 04:15:00,
2013-09-04 23:19:00,62.4,55.1,30.13,NE,49,6.0,7.0,77,0.00,,CLR,0.00,VWS V14.01,2013-09-05 04:19:00,
2013-09-04 23:24:00,62.3,55.4,30.13,NE,55,4.0,7.0,78,0.00,,CLR,0.00,VWS V14.01,2013-09-05 04:24:00,
2013-09-04 23:29:00,62.0,55.1,30.13,ENE,59,1.0,9.0,78,0.00,,CLR,0.00,VWS V14.01,2013-09-05 04:29:00,
2013-09-04 23:30:00,62.9,55.2,30.13,NNE,18,6.0,6.0,76,0.00,,,0.00,VWS V15.00,2013-09-05 04:30:00,
2013-09-04 23:34:00,61.6,55.0,30.13,ENE,60,5.0,6.0,79,0.00,,CLR,0.00,VWS V14.01,2013-09-05 04:34:00,
2013-09-04 23:39:00,61.2,55.0,30.13,ENE,62,3.0,9.0,80,0.00,,CLR,0.00,VWS V14.01,2013-09-05 04:39:00,
2013-09-04 23:44:00,60.9,54.7,30.13,ENE,63,3.0,9.0,80,0.00,,SCT120,0.00,VWS V14.01,2013-09-05 04:44:00,
2013-09-04 23:45:00,62.9,55.9,30.13,NNE,23,4.0,7.0,78,0.00,,,0.00,VWS V15.00,2013-09-05 04:45:00,
2013-09-04 23:49:00,60.5,54.7,30.14,ENE,63,3.0,5.0,81,0.00,,SCT120,0.00,VWS V14.01,2013-09-05 04:49:00,
2013-09-04 23:54:00,60.2,54.4,30.14,ENE,63,3.0,6.0,81,0.00,,SCT120,0.00,VWS V14.01,2013-09-05 04:54:00,